createdAt,value
2022-11-20T00:02:24.962Z,-6.13
2022-11-20T00:04:53.626Z,-6.14
2022-11-20T00:07:22.106Z,-6.12
2022-11-20T00:09:50.730Z,-6.12
2022-11-20T00:12:20.898Z,-6.16
2022-11-20T00:14:49.465Z,-6.13
2022-11-20T00:17:18.037Z,-6.11
2022-11-20T00:19:46.690Z,-6.10
2022-11-20T00:22:15.314Z,-6.10
2022-11-20T00:24:43.767Z,-6.09
2022-11-20T00:27:12.260Z,-6.14
2022-11-20T00:29:42.256Z,-6.12
2022-11-20T00:32:10.896Z,-6.17
2022-11-20T00:34:39.483Z,-6.17
2022-11-20T00:37:07.966Z,-6.16
2022-11-20T00:39:36.448Z,-6.16
2022-11-20T00:42:05.263Z,-6.17
2022-11-20T00:44:33.784Z,-6.17
2022-11-20T00:47:03.958Z,-6.12
2022-11-20T00:49:32.412Z,-6.16
2022-11-20T00:52:00.864Z,-6.14
2022-11-20T00:54:29.470Z,-6.13
2022-11-20T00:56:58.195Z,-6.14
2022-11-20T00:59:26.634Z,-6.05
2022-11-20T01:01:55.286Z,-6.11
2022-11-20T01:04:25.308Z,-6.10
2022-11-20T01:06:53.830Z,-6.15
2022-11-20T01:09:22.429Z,-6.17
2022-11-20T01:11:51.621Z,-6.13
2022-11-20T01:14:22.239Z,-6.12
2022-11-20T01:16:52.555Z,-6.08
2022-11-20T01:19:23.046Z,-6.08
2022-11-20T01:21:55.672Z,-6.09
2022-11-20T01:24:24.615Z,-6.09
2022-11-20T01:26:54.345Z,-6.10
2022-11-20T01:29:24.987Z,-6.10
2022-11-20T01:31:54.914Z,-6.09
2022-11-20T01:34:24.722Z,-6.13
2022-11-20T01:36:55.216Z,-6.12
2022-11-20T01:39:25.268Z,-6.14
2022-11-20T01:42:13.007Z,-6.09
2022-11-20T01:44:55.402Z,-6.10
2022-11-20T01:47:29.593Z,-6.07
2022-11-20T01:50:02.286Z,-6.09
2022-11-20T01:52:36.585Z,-6.09
2022-11-20T01:55:09.850Z,-6.05
2022-11-20T01:57:39.641Z,-6.16
2022-11-20T02:00:11.833Z,-6.10
2022-11-20T02:02:46.502Z,-6.07
2022-11-20T02:05:23.157Z,-6.15
2022-11-20T02:07:53.435Z,-6.19
2022-11-20T02:10:23.024Z,-6.22
2022-11-20T02:13:08.819Z,-6.16
2022-11-20T02:15:37.561Z,-6.17
2022-11-20T02:18:07.934Z,-6.15
2022-11-20T02:20:36.571Z,-6.17
2022-11-20T02:23:14.534Z,-6.15
2022-11-20T02:25:46.042Z,-6.15
2022-11-20T02:28:14.708Z,-6.15
2022-11-20T02:30:43.184Z,-6.15
2022-11-20T02:33:11.746Z,-6.16
2022-11-20T02:35:46.211Z,-6.08
2022-11-20T02:38:15.938Z,-6.08
2022-11-20T02:40:46.036Z,-6.08
2022-11-20T02:43:14.590Z,-6.14
2022-11-20T02:45:43.199Z,-6.15
2022-11-20T02:48:11.897Z,-6.15
2022-11-20T02:50:42.135Z,-5.92
2022-11-20T02:53:10.673Z,-6.03
2022-11-20T02:55:39.317Z,-6.13
2022-11-20T02:58:09.465Z,-6.13
2022-11-20T03:00:37.882Z,-6.16
2022-11-20T03:03:06.869Z,-6.18
2022-11-20T03:05:35.324Z,-6.21
2022-11-20T03:08:03.791Z,-6.20
2022-11-20T03:10:32.323Z,-6.18
2022-11-20T03:13:00.801Z,-6.07
2022-11-20T03:15:30.877Z,-6.08
2022-11-20T03:17:59.580Z,-6.10
2022-11-20T03:20:28.100Z,-5.97
2022-11-20T03:22:57.149Z,-5.87
2022-11-20T03:25:25.966Z,-5.84
2022-11-20T03:27:54.553Z,-5.65
2022-11-20T03:30:27.645Z,-5.77
2022-11-20T03:33:00.976Z,-5.89
2022-11-20T03:35:29.569Z,-5.92
2022-11-20T03:37:58.129Z,-6.00
2022-11-20T03:40:26.739Z,-6.03
2022-11-20T03:42:55.296Z,-5.95
2022-11-20T03:45:23.776Z,-5.86
2022-11-20T03:47:52.851Z,-5.83
2022-11-20T03:50:22.895Z,-5.82
2022-11-20T03:52:51.359Z,-5.59
2022-11-20T03:55:20.029Z,-5.68
2022-11-20T03:57:48.485Z,-5.55
2022-11-20T04:00:17.935Z,-5.73
2022-11-20T04:02:47.368Z,-5.54
2022-11-20T04:05:16.486Z,-5.44
2022-11-20T04:07:47.220Z,-5.34
2022-11-20T04:10:22.061Z,-5.38
2022-11-20T04:12:54.145Z,-5.27
2022-11-20T04:15:25.744Z,-5.32
2022-11-20T04:17:57.322Z,-5.76
2022-11-20T04:20:26.121Z,-5.99
2022-11-20T04:23:00.433Z,-6.08
2022-11-20T04:25:36.283Z,-5.90
2022-11-20T04:28:10.748Z,-6.01
2022-11-20T04:30:39.904Z,-6.12
2022-11-20T04:33:13.580Z,-5.85
2022-11-20T04:35:42.762Z,-5.74
2022-11-20T04:38:13.084Z,-5.83
2022-11-20T04:40:41.999Z,-5.88
2022-11-20T04:43:10.940Z,-5.89
2022-11-20T04:45:42.769Z,-5.85
2022-11-20T04:48:12.021Z,-5.76
2022-11-20T04:50:46.079Z,-5.60
2022-11-20T04:53:19.982Z,-5.62
2022-11-20T04:55:49.342Z,-5.80
2022-11-20T04:58:21.518Z,-5.73
2022-11-20T05:00:55.552Z,-5.66
2022-11-20T05:03:27.208Z,-5.59
2022-11-20T05:05:58.524Z,-5.50
2022-11-20T05:08:31.705Z,-5.56
2022-11-20T05:11:07.521Z,-5.52
2022-11-20T05:13:42.741Z,-5.42
2022-11-20T05:16:15.967Z,-5.51
2022-11-20T05:18:50.885Z,-5.49
2022-11-20T05:21:23.323Z,-5.37
2022-11-20T05:23:56.341Z,-5.44
2022-11-20T05:26:25.839Z,-5.33
2022-11-20T05:28:55.162Z,-5.29
2022-11-20T05:31:28.114Z,-5.40
2022-11-20T05:33:59.001Z,-5.33
2022-11-20T05:36:30.917Z,-5.61
2022-11-20T05:39:05.915Z,-5.59
2022-11-20T05:41:36.109Z,-5.58
2022-11-20T05:44:05.379Z,-5.59
2022-11-20T05:46:39.469Z,-5.58
2022-11-20T05:49:16.940Z,-5.40
2022-11-20T05:51:49.178Z,-5.29
2022-11-20T05:54:20.021Z,-5.44
2022-11-20T05:56:52.030Z,-5.66
2022-11-20T05:59:21.366Z,-5.48
2022-11-20T06:02:00.207Z,-5.70
2022-11-20T06:04:35.626Z,-5.67
2022-11-20T06:07:04.665Z,-5.69
2022-11-20T06:09:38.245Z,-5.74
2022-11-20T06:12:13.305Z,-5.74
2022-11-20T06:14:43.310Z,-5.87
2022-11-20T06:17:40.107Z,-6.01
2022-11-20T06:20:23.144Z,-6.19
2022-11-20T06:22:51.972Z,-6.28
2022-11-20T06:25:22.490Z,-6.35
2022-11-20T06:27:54.932Z,-6.42
2022-11-20T06:30:23.883Z,-6.49
2022-11-20T06:32:53.342Z,-6.44
2022-11-20T06:35:24.183Z,-6.50
2022-11-20T06:37:55.874Z,-6.57
2022-11-20T06:40:38.333Z,-6.59
2022-11-20T06:43:07.764Z,-6.69
2022-11-20T06:45:43.145Z,-6.64
2022-11-20T06:48:13.644Z,-6.65
2022-11-20T06:50:44.883Z,-6.70
2022-11-20T06:53:13.751Z,-6.69
2022-11-20T06:55:46.966Z,-6.63
2022-11-20T06:58:16.408Z,-6.66
2022-11-20T07:00:44.938Z,-6.64
2022-11-20T07:03:14.666Z,-6.65
2022-11-20T07:05:43.279Z,-6.68
2022-11-20T07:08:11.905Z,-6.65
2022-11-20T07:10:40.660Z,-6.71
2022-11-20T07:13:10.622Z,-6.66
2022-11-20T07:15:39.258Z,-6.67
2022-11-20T07:18:07.840Z,-6.68
2022-11-20T07:20:36.344Z,-6.63
2022-11-20T07:23:04.919Z,-6.63
2022-11-20T07:25:33.402Z,-6.65
2022-11-20T07:28:03.047Z,-6.59
2022-11-20T07:30:33.127Z,-6.60
2022-11-20T07:33:01.725Z,-6.60
2022-11-20T07:35:30.380Z,-6.41
2022-11-20T07:37:58.961Z,-6.54
2022-11-20T07:40:27.817Z,-6.51
2022-11-20T07:42:57.567Z,-6.51
2022-11-20T07:45:26.728Z,-6.51
2022-11-20T07:47:56.660Z,-6.56
2022-11-20T07:50:25.191Z,-6.28
2022-11-20T07:52:53.723Z,-6.29
2022-11-20T07:55:22.201Z,-6.27
2022-11-20T07:57:57.352Z,-6.40
2022-11-20T08:00:26.401Z,-6.47
2022-11-20T08:02:56.681Z,-6.53
2022-11-20T08:05:25.284Z,-6.49
2022-11-20T08:07:53.743Z,-6.37
2022-11-20T08:10:22.368Z,-6.33
2022-11-20T08:13:09.461Z,-6.25
2022-11-20T08:15:38.923Z,-6.21
2022-11-20T08:21:00.782Z,-6.19
2022-11-20T08:23:29.199Z,-6.06
2022-11-20T08:25:57.770Z,-6.14
2022-11-20T08:28:26.384Z,-6.16
2022-11-20T08:31:00.905Z,-6.13
2022-11-20T08:33:33.732Z,-6.16
2022-11-20T08:36:03.242Z,-6.34
2022-11-20T08:38:32.082Z,-6.35
2022-11-20T08:41:14.642Z,-6.27
2022-11-20T08:43:43.163Z,-6.27
2022-11-20T08:46:11.603Z,-6.32
2022-11-20T08:48:41.761Z,-6.32
2022-11-20T08:51:10.527Z,-6.25
2022-11-20T08:53:39.040Z,-6.37
2022-11-20T08:56:08.380Z,-6.29
2022-11-20T08:59:02.057Z,-6.24
2022-11-20T09:01:26.089Z,-6.33
2022-11-20T09:03:58.028Z,-5.95
2022-11-20T09:06:26.588Z,-5.98
2022-11-20T09:08:55.273Z,-6.01
2022-11-20T09:11:24.095Z,-6.10
2022-11-20T09:13:52.763Z,-6.17
2022-11-20T09:16:23.284Z,-5.97
2022-11-20T09:19:02.160Z,-6.03
2022-11-20T09:21:37.984Z,-5.85
2022-11-20T09:24:08.012Z,-5.87
2022-11-20T09:26:36.543Z,-6.16
2022-11-20T09:29:05.259Z,-6.13
2022-11-20T09:31:34.024Z,-5.96
2022-11-20T09:34:02.514Z,-5.97
2022-11-20T09:36:31.122Z,-5.89
2022-11-20T09:39:01.063Z,-5.85
2022-11-20T09:41:47.102Z,-5.66
2022-11-20T09:44:29.747Z,-5.71
2022-11-20T09:47:03.852Z,-5.85
2022-11-20T09:49:39.987Z,-5.86
2022-11-20T09:52:19.741Z,-6.15
2022-11-20T09:54:51.245Z,-6.02
2022-11-20T09:57:24.490Z,-6.24
2022-11-20T09:59:56.423Z,-6.27
2022-11-20T10:02:33.083Z,-6.00
2022-11-20T10:05:08.712Z,-6.36
2022-11-20T10:07:44.135Z,-6.29
2022-11-20T10:10:19.363Z,-6.09
2022-11-20T10:13:07.763Z,-6.08
2022-11-20T10:15:45.705Z,-6.12
2022-11-20T10:18:27.706Z,-5.94
2022-11-20T10:21:03.966Z,-6.08
2022-11-20T10:23:55.106Z,-6.15
2022-11-20T10:26:29.166Z,-6.21
2022-11-20T10:29:13.099Z,-6.15
2022-11-20T10:31:44.503Z,-6.00
2022-11-20T10:34:23.435Z,-6.03
2022-11-20T10:36:58.027Z,-5.94
2022-11-20T10:39:35.104Z,-5.89
2022-11-20T10:42:07.304Z,-5.81
2022-11-20T10:44:56.953Z,-5.89
2022-11-20T10:47:28.061Z,-5.87
2022-11-20T10:49:59.363Z,-5.99
2022-11-20T10:52:35.524Z,-6.24
2022-11-20T10:55:11.245Z,-6.31
2022-11-20T10:57:56.383Z,-6.25
2022-11-20T11:00:25.083Z,-6.35
2022-11-20T11:02:54.986Z,-6.40
2022-11-20T11:05:34.785Z,-6.52
2022-11-20T11:08:03.363Z,-6.41
2022-11-20T11:10:39.346Z,-6.25
2022-11-20T11:13:09.763Z,-6.23
2022-11-20T11:15:43.424Z,-6.49
2022-11-20T11:18:12.963Z,-6.39
2022-11-20T11:20:41.463Z,-6.32
2022-11-20T11:23:31.143Z,-6.34
2022-11-20T11:26:01.046Z,-6.51
2022-11-20T11:28:31.328Z,-6.50
2022-11-20T11:30:59.848Z,-6.39
2022-11-20T11:33:29.944Z,-6.47
2022-11-20T11:36:00.626Z,-6.83
2022-11-20T11:38:36.725Z,-6.76
2022-11-20T11:41:07.142Z,-6.67
2022-11-20T11:43:56.720Z,-6.64
2022-11-20T11:46:30.982Z,-6.50
2022-11-20T11:49:01.271Z,-6.50
2022-11-20T11:51:40.524Z,-6.56
2022-11-20T11:54:20.104Z,-6.43
2022-11-20T11:56:49.154Z,-6.41
2022-11-20T11:59:27.744Z,-6.46
2022-11-20T12:02:01.893Z,-6.56
2022-11-20T12:04:44.770Z,-6.51
2022-11-20T12:07:44.911Z,-6.34
2022-11-20T12:10:15.566Z,-6.43
2022-11-20T12:12:47.447Z,-6.31
2022-11-20T12:15:32.448Z,-6.21
2022-11-20T12:18:01.486Z,-6.17
2022-11-20T12:20:37.623Z,-6.11
2022-11-20T12:23:17.120Z,-6.14
2022-11-20T12:25:50.580Z,-6.25
2022-11-20T12:28:55.270Z,-6.38
2022-11-20T12:32:05.407Z,-6.43
2022-11-20T12:35:00.452Z,-6.34
2022-11-20T12:37:56.751Z,-6.35
2022-11-20T12:40:41.428Z,-6.54
2022-11-20T12:43:40.096Z,-6.52
2022-11-20T12:46:22.130Z,-6.56
2022-11-20T12:49:22.690Z,-6.60
2022-11-20T12:52:39.648Z,-6.43
2022-11-20T12:55:31.100Z,-6.50
2022-11-20T12:58:13.731Z,-6.72
2022-11-20T13:01:01.787Z,-6.79
2022-11-20T13:03:53.764Z,-6.99
2022-11-20T13:06:27.762Z,-6.64
2022-11-20T13:08:59.285Z,-6.80
2022-11-20T13:11:37.649Z,-6.92
2022-11-20T13:14:19.895Z,-7.22
2022-11-20T13:17:03.318Z,-7.10
2022-11-20T13:19:35.936Z,-7.33
2022-11-20T13:22:05.034Z,-7.48
2022-11-20T13:24:35.599Z,-7.56
2022-11-20T13:27:21.866Z,-7.70
2022-11-20T13:30:19.352Z,-7.48
2022-11-20T13:33:11.239Z,-7.65
2022-11-20T13:35:45.061Z,-7.60
2022-11-20T13:38:16.262Z,-7.63
2022-11-20T13:40:56.166Z,-7.75
2022-11-20T13:43:37.455Z,-7.86
2022-11-20T13:46:08.010Z,-7.90
2022-11-20T13:48:42.300Z,-8.67
2022-11-20T13:51:42.166Z,-8.34
2022-11-20T13:54:55.985Z,-8.12
2022-11-20T13:57:51.606Z,-8.43
2022-11-20T14:00:22.363Z,-8.37
2022-11-20T14:03:11.166Z,-8.07
2022-11-20T14:05:44.739Z,-8.14
2022-11-20T14:08:25.607Z,-8.28
2022-11-20T14:11:06.636Z,-8.41
2022-11-20T14:13:38.630Z,-8.20
2022-11-20T14:16:11.782Z,-8.53
2022-11-20T14:18:40.824Z,-8.46
2022-11-20T14:21:12.111Z,-8.20
2022-11-20T14:23:41.086Z,-8.58
2022-11-20T14:26:21.869Z,-8.93
2022-11-20T14:28:53.464Z,-8.74
2022-11-20T14:31:30.013Z,-8.63
2022-11-20T14:34:02.334Z,-8.56
2022-11-20T14:36:34.232Z,-8.40
2022-11-20T14:39:03.248Z,-8.24
2022-11-20T14:41:33.435Z,-8.31
2022-11-20T14:44:04.342Z,-8.37
2022-11-20T14:46:34.072Z,-8.35
2022-11-20T14:49:05.471Z,-8.46
2022-11-20T14:51:36.314Z,-8.68
2022-11-20T14:54:18.113Z,-8.40
2022-11-20T14:56:57.350Z,-8.26
2022-11-20T14:59:29.113Z,-8.45
2022-11-20T15:02:00.434Z,-8.37
2022-11-20T15:04:30.925Z,-8.36
2022-11-20T15:07:01.096Z,-8.42
2022-11-20T15:09:30.074Z,-8.34
2022-11-20T15:12:00.815Z,-8.29
2022-11-20T15:14:34.113Z,-8.77
2022-11-20T15:17:03.476Z,-8.56
2022-11-20T15:19:32.828Z,-8.51
2022-11-20T15:22:01.810Z,-8.49
2022-11-20T15:24:30.524Z,-8.58
2022-11-20T15:26:59.206Z,-8.55
2022-11-20T15:29:28.168Z,-8.71
2022-11-20T15:31:58.749Z,-8.63
2022-11-20T15:34:29.898Z,-8.69
2022-11-20T15:36:58.721Z,-8.60
2022-11-20T15:39:27.515Z,-8.44
2022-11-20T15:41:56.463Z,-8.56
2022-11-20T15:44:29.138Z,-8.41
2022-11-20T15:46:59.509Z,-8.38
2022-11-20T15:49:28.254Z,-8.20
2022-11-20T15:51:56.953Z,-8.22
2022-11-20T15:54:26.342Z,-8.32
2022-11-20T15:56:59.475Z,-8.26
2022-11-20T15:59:28.743Z,-8.14
2022-11-20T16:02:01.285Z,-8.04
2022-11-20T16:04:30.595Z,-8.05
2022-11-20T16:06:59.635Z,-7.90
2022-11-20T16:09:28.546Z,-7.82
2022-11-20T16:11:57.577Z,-7.77
2022-11-20T16:14:46.784Z,-7.86
2022-11-20T16:17:37.396Z,-7.76
2022-11-20T16:20:07.015Z,-7.85
2022-11-20T16:22:35.779Z,-7.84
2022-11-20T16:25:05.405Z,-7.92
2022-11-20T16:27:34.395Z,-7.90
2022-11-20T16:30:03.270Z,-7.84
2022-11-20T16:32:35.695Z,-7.75
2022-11-20T16:35:04.691Z,-7.78
2022-11-20T16:37:33.514Z,-7.78
2022-11-20T16:40:05.168Z,-7.62
2022-11-20T16:42:37.402Z,-7.60
2022-11-20T16:45:08.049Z,-7.56
2022-11-20T16:47:38.500Z,-7.54
2022-11-20T16:50:10.895Z,-7.49
2022-11-20T16:52:39.825Z,-7.67
2022-11-20T16:55:09.100Z,-7.68
2022-11-20T16:57:43.090Z,-7.69
2022-11-20T17:00:15.791Z,-7.59
2022-11-20T17:02:46.358Z,-7.64
2022-11-20T17:08:01.725Z,-7.63
2022-11-20T17:10:31.384Z,-7.58
2022-11-20T17:13:00.292Z,-7.66
2022-11-20T17:15:29.014Z,-7.58
2022-11-20T17:17:59.485Z,-7.57
2022-11-20T17:20:28.602Z,-7.48
2022-11-20T17:22:58.296Z,-7.59
2022-11-20T17:25:26.924Z,-7.65
2022-11-20T17:27:56.274Z,-7.59
2022-11-20T17:30:24.926Z,-7.54
2022-11-20T17:32:55.381Z,-7.42
2022-11-20T17:35:25.402Z,-7.46
2022-11-20T17:37:54.957Z,-7.44
2022-11-20T17:40:27.344Z,-7.57
2022-11-20T17:42:57.022Z,-7.48
2022-11-20T17:45:25.639Z,-7.48
2022-11-20T17:47:54.192Z,-7.39
2022-11-20T17:50:22.884Z,-7.31
2022-11-20T17:52:52.943Z,-7.40
2022-11-20T17:55:21.632Z,-7.41
2022-11-20T17:57:52.882Z,-7.34
2022-11-20T18:00:22.478Z,-7.40
2022-11-20T18:02:51.154Z,-7.37
2022-11-20T18:05:19.734Z,-7.23
2022-11-20T18:07:48.420Z,-7.27
2022-11-20T18:10:18.750Z,-7.41
2022-11-20T18:12:47.478Z,-7.36
2022-11-20T18:15:16.071Z,-7.31
2022-11-20T18:17:44.744Z,-7.27
2022-11-20T18:20:28.302Z,-7.29
2022-11-20T18:22:58.165Z,-7.39
2022-11-20T18:25:28.353Z,-7.41
2022-11-20T18:27:56.860Z,-7.39
2022-11-20T18:30:25.965Z,-7.33
2022-11-20T18:32:54.493Z,-7.39
2022-11-20T18:35:23.293Z,-7.48
2022-11-20T18:37:51.899Z,-7.34
2022-11-20T18:40:20.470Z,-7.27
2022-11-20T18:43:07.799Z,-7.28
2022-11-20T18:45:36.851Z,-7.34
2022-11-20T18:48:05.851Z,-7.37
2022-11-20T18:50:34.365Z,-7.38
2022-11-20T18:53:02.866Z,-7.36
2022-11-20T18:55:31.459Z,-7.43
2022-11-20T18:58:01.635Z,-7.52
2022-11-20T19:00:30.113Z,-7.43
2022-11-20T19:02:58.712Z,-7.47
2022-11-20T19:05:27.383Z,-7.29
2022-11-20T19:07:56.043Z,-7.41
2022-11-20T19:10:24.971Z,-7.37
2022-11-20T19:12:53.539Z,-7.32
2022-11-20T19:15:23.531Z,-7.32
2022-11-20T19:17:52.214Z,-7.31
2022-11-20T19:20:20.875Z,-7.38
2022-11-20T19:22:51.674Z,-7.32
2022-11-20T19:25:20.275Z,-7.25
2022-11-20T19:27:48.975Z,-7.42
2022-11-20T19:30:17.816Z,-7.37
2022-11-20T19:32:47.786Z,-7.37
2022-11-20T19:35:16.332Z,-7.26
2022-11-20T19:37:44.932Z,-7.25
2022-11-20T19:40:13.684Z,-7.16
2022-11-20T19:42:42.255Z,-7.27
2022-11-20T19:45:11.118Z,-7.22
2022-11-20T19:48:06.818Z,-7.18
2022-11-20T19:50:29.731Z,-7.18
2022-11-20T19:52:59.110Z,-7.24
2022-11-20T19:55:27.957Z,-7.16
2022-11-20T19:57:56.512Z,-7.25
2022-11-20T20:00:31.269Z,-7.21
2022-11-20T20:03:01.053Z,-7.10
2022-11-20T20:05:31.075Z,-7.06
2022-11-20T20:07:59.686Z,-7.06
2022-11-20T20:10:33.221Z,-7.07
2022-11-20T20:13:04.200Z,-6.98
2022-11-20T20:15:33.766Z,-6.88
2022-11-20T20:18:05.026Z,-7.03
2022-11-20T20:20:42.489Z,-7.13
2022-11-20T20:23:18.199Z,-7.17
2022-11-20T20:25:52.480Z,-7.09
2022-11-20T20:28:24.895Z,-7.04
2022-11-20T20:30:54.240Z,-7.10
2022-11-20T20:33:25.560Z,-7.11
2022-11-20T20:35:57.720Z,-7.10
2022-11-20T20:38:30.700Z,-7.02
2022-11-20T20:41:09.795Z,-7.10
2022-11-20T20:43:55.195Z,-7.16
2022-11-20T20:46:28.668Z,-7.14
2022-11-20T20:49:00.804Z,-7.16
2022-11-20T20:51:32.942Z,-7.13
2022-11-20T20:54:08.265Z,-7.16
2022-11-20T20:56:37.669Z,-7.19
2022-11-20T20:59:10.722Z,-7.15
2022-11-20T21:01:41.862Z,-7.05
2022-11-20T21:04:15.862Z,-7.02
2022-11-20T21:06:47.865Z,-6.96
2022-11-20T21:09:19.837Z,-6.99
2022-11-20T21:11:51.985Z,-6.97
2022-11-20T21:14:21.042Z,-7.08
2022-11-20T21:16:58.007Z,-6.84
2022-11-20T21:19:26.891Z,-6.83
2022-11-20T21:22:03.261Z,-6.91
2022-11-20T21:24:37.795Z,-6.97
2022-11-20T21:27:18.591Z,-6.88
2022-11-20T21:29:47.353Z,-6.88
2022-11-20T21:32:19.270Z,-6.88
2022-11-20T21:34:48.261Z,-7.00
2022-11-20T21:37:29.740Z,-6.96
2022-11-20T21:40:03.378Z,-7.07
2022-11-20T21:42:34.968Z,-6.93
2022-11-20T21:45:07.748Z,-6.89
2022-11-20T21:47:37.216Z,-6.84
2022-11-20T21:50:10.482Z,-6.93
2022-11-20T21:52:43.000Z,-6.87
2022-11-20T21:55:14.380Z,-6.83
2022-11-20T21:57:43.660Z,-6.82
2022-11-20T22:00:16.846Z,-6.79
2022-11-20T22:02:49.461Z,-6.87
2022-11-20T22:08:13.439Z,-6.97
2022-11-20T22:10:48.301Z,-6.89
2022-11-20T22:13:38.225Z,-7.00
2022-11-20T22:16:17.241Z,-7.04
2022-11-20T22:19:07.062Z,-7.06
2022-11-20T22:21:36.509Z,-6.81
2022-11-20T22:24:07.019Z,-6.96
2022-11-20T22:26:40.533Z,-6.92
2022-11-20T22:29:14.024Z,-6.99
2022-11-20T22:31:43.121Z,-6.94
2022-11-20T22:34:13.508Z,-6.87
2022-11-20T22:36:43.486Z,-7.00
2022-11-20T22:39:13.839Z,-6.94
2022-11-20T22:41:42.867Z,-6.92
2022-11-20T22:44:16.205Z,-6.91
2022-11-20T22:46:45.084Z,-7.00
2022-11-20T22:49:14.052Z,-7.04
2022-11-20T22:51:43.884Z,-6.99
2022-11-20T22:54:14.767Z,-6.96
2022-11-20T22:56:46.541Z,-6.96
2022-11-20T22:59:18.706Z,-7.00
2022-11-20T23:01:51.018Z,-7.01
2022-11-20T23:04:22.908Z,-6.89
2022-11-20T23:06:51.723Z,-6.79
2022-11-20T23:09:22.050Z,-6.93
2022-11-20T23:11:50.572Z,-6.94
2022-11-20T23:14:21.519Z,-6.92
2022-11-20T23:16:53.519Z,-6.92
2022-11-20T23:19:22.836Z,-6.85
2022-11-20T23:21:51.425Z,-6.81
2022-11-20T23:24:21.557Z,-6.80
2022-11-20T23:26:50.411Z,-6.80
2022-11-20T23:29:19.038Z,-6.82
2022-11-20T23:31:47.632Z,-6.82
2022-11-20T23:34:16.236Z,-6.75
2022-11-20T23:36:44.792Z,-6.66
2022-11-20T23:39:15.181Z,-6.63
2022-11-20T23:41:45.382Z,-6.64
2022-11-20T23:44:13.822Z,-6.67
2022-11-20T23:46:42.567Z,-6.79
2022-11-20T23:49:11.314Z,-6.86
2022-11-20T23:51:39.919Z,-6.87
2022-11-20T23:54:08.620Z,-6.79
2022-11-20T23:56:37.099Z,-6.75
2022-11-20T23:59:09.442Z,-6.75
